createdAt,value
2018-11-22T00:02:06.074Z,4.90
2018-11-22T00:07:01.539Z,4.90
2018-11-22T00:11:56.598Z,4.90
2018-11-22T00:16:51.241Z,4.90
2018-11-22T00:21:46.030Z,4.90
2018-11-22T00:26:40.774Z,4.90
2018-11-22T00:31:35.748Z,5.00
2018-11-22T00:36:30.628Z,5.00
2018-11-22T00:41:25.334Z,5.00
2018-11-22T00:46:20.317Z,5.00
2018-11-22T00:51:15.275Z,5.00
2018-11-22T00:56:10.305Z,5.00
2018-11-22T01:01:05.405Z,5.00
2018-11-22T01:06:00.592Z,5.00
2018-11-22T01:10:55.786Z,5.10
2018-11-22T01:15:50.661Z,5.00
2018-11-22T01:20:45.817Z,5.00
2018-11-22T01:25:40.553Z,5.00
2018-11-22T01:30:35.543Z,5.00
2018-11-22T01:35:30.435Z,5.00
2018-11-22T01:40:25.818Z,5.00
2018-11-22T01:45:24.712Z,5.00
2018-11-22T01:50:19.937Z,5.00
2018-11-22T01:55:16.168Z,5.00
2018-11-22T02:00:17.557Z,5.00
2018-11-22T02:05:17.457Z,5.00
2018-11-22T02:10:13.518Z,4.90
2018-11-22T02:15:11.773Z,4.90
2018-11-22T02:20:10.378Z,4.90
2018-11-22T02:25:05.472Z,4.80
2018-11-22T02:30:00.164Z,4.80
2018-11-22T02:34:54.847Z,4.80
2018-11-22T02:39:49.525Z,4.80
2018-11-22T02:44:44.167Z,4.80
2018-11-22T02:49:38.844Z,4.80
2018-11-22T02:54:33.488Z,4.80
2018-11-22T02:59:28.158Z,4.80
2018-11-22T03:04:22.827Z,4.80
2018-11-22T03:09:17.518Z,4.80
2018-11-22T03:14:12.146Z,4.70
2018-11-22T03:19:07.047Z,4.70
2018-11-22T03:24:02.021Z,4.70
2018-11-22T03:28:56.724Z,4.70
2018-11-22T03:33:51.396Z,4.70
2018-11-22T03:38:46.089Z,4.70
2018-11-22T03:43:40.757Z,4.80
2018-11-22T03:48:35.430Z,4.70
2018-11-22T03:53:30.074Z,4.70
2018-11-22T03:58:24.736Z,4.70
2018-11-22T04:03:19.485Z,4.70
2018-11-22T04:08:14.158Z,4.70
2018-11-22T04:13:08.822Z,4.70
2018-11-22T04:18:03.565Z,4.70
2018-11-22T04:22:58.242Z,4.60
2018-11-22T04:27:52.883Z,4.60
2018-11-22T04:32:48.076Z,4.60
2018-11-22T04:37:43.123Z,4.60
2018-11-22T04:42:37.820Z,4.60
2018-11-22T04:47:32.495Z,4.60
2018-11-22T04:52:27.201Z,4.50
2018-11-22T04:57:21.883Z,4.50
2018-11-22T05:02:16.579Z,4.50
2018-11-22T05:07:11.264Z,4.50
2018-11-22T05:12:06.468Z,4.50
2018-11-22T05:17:01.173Z,4.40
2018-11-22T05:21:56.000Z,4.40
2018-11-22T05:26:50.761Z,4.40
2018-11-22T05:31:45.435Z,4.30
2018-11-22T05:36:40.136Z,4.30
2018-11-22T05:41:34.793Z,4.20
2018-11-22T05:46:29.476Z,4.20
2018-11-22T05:51:24.222Z,4.10
2018-11-22T05:56:18.902Z,4.10
2018-11-22T06:01:16.369Z,4.10
2018-11-22T06:06:08.215Z,4.10
2018-11-22T06:11:02.849Z,4.00
2018-11-22T06:15:57.533Z,4.00
2018-11-22T06:20:52.254Z,4.00
2018-11-22T06:25:46.986Z,3.90
2018-11-22T06:30:41.780Z,3.90
2018-11-22T06:35:36.476Z,3.90
2018-11-22T06:40:31.119Z,3.90
2018-11-22T06:45:27.159Z,3.90
2018-11-22T06:50:22.750Z,3.90
2018-11-22T06:55:18.909Z,3.90
2018-11-22T07:00:16.571Z,3.90
2018-11-22T07:05:11.956Z,4.00
2018-11-22T07:10:08.325Z,4.00
2018-11-22T07:15:03.139Z,4.00
2018-11-22T07:19:57.786Z,4.00
2018-11-22T07:24:52.571Z,4.10
2018-11-22T07:29:48.451Z,4.10
2018-11-22T07:34:43.361Z,4.20
2018-11-22T07:39:37.999Z,4.30
2018-11-22T07:44:32.712Z,4.30
2018-11-22T07:49:27.350Z,4.40
2018-11-22T07:54:22.061Z,4.50
2018-11-22T07:59:18.740Z,4.80
2018-11-22T08:04:13.521Z,5.10
2018-11-22T08:09:10.042Z,5.40
2018-11-22T08:14:04.886Z,5.60
2018-11-22T08:19:00.269Z,5.60
2018-11-22T08:23:55.090Z,6.10
2018-11-22T08:28:49.723Z,7.50
2018-11-22T08:33:44.377Z,8.90
2018-11-22T08:38:39.012Z,10.00
2018-11-22T08:43:34.025Z,9.70
2018-11-22T08:48:28.665Z,9.10
2018-11-22T08:53:23.483Z,9.80
2018-11-22T08:58:18.225Z,11.20
2018-11-22T09:03:12.886Z,13.20
2018-11-22T09:08:07.574Z,13.40
2018-11-22T09:13:02.999Z,13.80
2018-11-22T09:17:57.733Z,12.00
2018-11-22T09:22:52.423Z,10.70
2018-11-22T09:27:47.250Z,9.50
2018-11-22T09:32:42.350Z,9.10
2018-11-22T09:37:36.970Z,8.30
2018-11-22T09:42:31.693Z,7.50
2018-11-22T09:47:26.561Z,7.20
2018-11-22T09:52:21.649Z,7.40
2018-11-22T09:57:16.270Z,7.50
2018-11-22T10:02:11.066Z,7.50
2018-11-22T10:07:06.260Z,7.30
2018-11-22T10:12:00.935Z,7.40
2018-11-22T10:16:55.813Z,7.10
2018-11-22T10:21:50.454Z,6.90
2018-11-22T10:26:45.079Z,6.80
2018-11-22T10:31:39.880Z,6.80
2018-11-22T10:36:34.850Z,6.80
2018-11-22T10:41:29.898Z,6.80
2018-11-22T10:46:24.818Z,6.80
2018-11-22T10:51:19.485Z,6.90
2018-11-22T10:56:14.132Z,7.10
2018-11-22T11:01:26.417Z,7.20
2018-11-22T11:06:48.988Z,7.10
2018-11-22T11:11:43.629Z,7.00
2018-11-22T11:16:38.339Z,6.90
2018-11-22T11:21:32.948Z,6.80
2018-11-22T11:26:27.588Z,6.80
2018-11-22T11:31:22.282Z,6.70
2018-11-22T11:36:17.856Z,6.80
2018-11-22T11:41:11.542Z,6.80
2018-11-22T11:46:06.324Z,6.90
2018-11-22T11:51:01.130Z,6.90
2018-11-22T11:55:55.781Z,7.10
2018-11-22T12:00:50.423Z,7.10
2018-11-22T12:05:45.592Z,7.30
2018-11-22T12:10:40.206Z,7.20
2018-11-22T12:15:34.884Z,7.20
2018-11-22T12:20:29.503Z,7.40
2018-11-22T12:25:25.406Z,7.50
2018-11-22T12:30:21.474Z,7.50
2018-11-22T12:35:33.959Z,7.40
2018-11-22T12:40:28.971Z,7.50
2018-11-22T12:45:23.781Z,7.30
2018-11-22T12:50:18.430Z,7.30
2018-11-22T12:55:13.282Z,7.40
2018-11-22T13:00:14.246Z,7.50
2018-11-22T13:05:11.181Z,7.50
2018-11-22T13:10:12.126Z,7.60
2018-11-22T13:15:09.319Z,7.70
2018-11-22T13:20:04.304Z,7.70
2018-11-22T13:24:59.052Z,7.60
2018-11-22T13:29:53.842Z,7.60
2018-11-22T13:34:48.704Z,7.60
2018-11-22T13:39:43.352Z,7.60
2018-11-22T13:44:37.999Z,7.80
2018-11-22T13:49:34.412Z,8.00
2018-11-22T13:54:29.090Z,8.10
2018-11-22T13:59:23.830Z,8.30
2018-11-22T14:04:18.608Z,8.30
2018-11-22T14:09:13.311Z,8.30
2018-11-22T14:14:07.956Z,8.20
2018-11-22T14:19:02.739Z,8.10
2018-11-22T14:23:57.408Z,7.80
2018-11-22T14:28:52.026Z,7.70
2018-11-22T14:33:46.661Z,7.50
2018-11-22T14:38:41.296Z,7.30
2018-11-22T14:43:35.934Z,7.30
2018-11-22T14:48:30.545Z,7.30
2018-11-22T14:53:25.335Z,7.20
2018-11-22T14:58:19.961Z,7.10
2018-11-22T15:03:14.689Z,7.00
2018-11-22T15:08:09.316Z,6.90
2018-11-22T15:13:04.021Z,6.70
2018-11-22T15:17:58.821Z,6.60
2018-11-22T15:22:54.151Z,6.50
2018-11-22T15:27:48.834Z,6.40
2018-11-22T15:32:43.479Z,6.30
2018-11-22T15:37:40.936Z,6.20
2018-11-22T15:42:35.639Z,6.10
2018-11-22T15:47:30.353Z,6.00
2018-11-22T15:52:25.244Z,5.80
2018-11-22T15:57:20.055Z,5.70
2018-11-22T16:02:14.703Z,5.60
2018-11-22T16:07:09.609Z,5.50
2018-11-22T16:12:04.700Z,5.40
2018-11-22T16:16:59.320Z,5.30
2018-11-22T16:21:54.018Z,5.20
2018-11-22T16:26:48.672Z,5.10
2018-11-22T16:31:43.428Z,5.00
2018-11-22T16:36:38.048Z,4.90
2018-11-22T16:41:32.712Z,4.80
2018-11-22T16:46:27.540Z,4.80
2018-11-22T16:51:22.225Z,4.90
2018-11-22T16:56:16.921Z,4.80
2018-11-22T17:01:11.564Z,4.70
2018-11-22T17:06:06.759Z,4.60
2018-11-22T17:11:02.318Z,4.50
2018-11-22T17:15:56.231Z,4.50
2018-11-22T17:20:51.030Z,4.40
2018-11-22T17:25:45.535Z,4.40
2018-11-22T17:30:41.579Z,4.40
2018-11-22T17:35:36.548Z,4.40
2018-11-22T17:40:32.907Z,4.30
2018-11-22T17:45:31.510Z,4.30
2018-11-22T17:50:28.791Z,4.30
2018-11-22T17:55:24.898Z,4.30
2018-11-22T18:00:24.817Z,4.20
2018-11-22T18:05:19.459Z,4.10
2018-11-22T18:10:19.492Z,4.00
2018-11-22T18:15:15.554Z,4.00
2018-11-22T18:20:18.749Z,3.90
2018-11-22T18:25:15.075Z,3.80
2018-11-22T18:30:21.496Z,3.80
2018-11-22T18:35:16.385Z,3.70
2018-11-22T18:40:40.359Z,3.60
2018-11-22T18:45:45.518Z,3.60
2018-11-22T18:50:40.770Z,3.60
2018-11-22T18:55:35.412Z,3.50
2018-11-22T19:00:34.181Z,3.50
2018-11-22T19:05:28.956Z,3.50
2018-11-22T19:10:25.143Z,3.40
2018-11-22T19:15:21.274Z,3.50
2018-11-22T19:20:21.936Z,3.50
2018-11-22T19:25:17.073Z,3.40
2018-11-22T19:30:17.543Z,3.50
2018-11-22T19:35:13.146Z,3.60
2018-11-22T19:40:39.221Z,3.70
2018-11-22T19:45:38.135Z,3.90
2018-11-22T19:50:33.402Z,4.00
2018-11-22T19:55:29.535Z,4.10
2018-11-22T20:00:25.157Z,4.20
2018-11-22T20:05:20.829Z,4.30
2018-11-22T20:10:35.659Z,4.40
2018-11-22T20:15:30.520Z,4.40
2018-11-22T20:20:25.889Z,4.50
2018-11-22T20:25:20.572Z,4.50
2018-11-22T20:30:28.691Z,4.60
2018-11-22T20:35:23.869Z,4.50
2018-11-22T20:40:19.987Z,4.40
2018-11-22T20:45:16.555Z,4.30
2018-11-22T20:50:14.274Z,4.10
2018-11-22T20:55:18.800Z,4.00
2018-11-22T21:00:24.848Z,3.90
2018-11-22T21:06:12.244Z,3.70
2018-11-22T21:11:10.051Z,3.60
2018-11-22T21:16:07.981Z,3.50
2018-11-22T21:21:05.756Z,3.40
2018-11-22T21:26:03.551Z,3.30
2018-11-22T21:31:01.320Z,3.10
2018-11-22T21:35:59.224Z,3.10
2018-11-22T21:40:57.138Z,3.00
2018-11-22T21:45:55.143Z,3.00
2018-11-22T21:50:52.914Z,3.00
2018-11-22T21:55:50.663Z,2.90
2018-11-22T22:00:48.443Z,2.90
2018-11-22T22:05:46.351Z,2.80
2018-11-22T22:10:44.158Z,2.80
2018-11-22T22:15:41.908Z,2.80
2018-11-22T22:20:39.881Z,2.80
2018-11-22T22:25:37.654Z,2.70
2018-11-22T22:30:36.180Z,2.70
2018-11-22T22:35:34.029Z,2.60
2018-11-22T22:40:32.860Z,2.60
2018-11-22T22:45:31.751Z,2.50
2018-11-22T22:50:30.468Z,2.50
2018-11-22T22:55:28.663Z,2.50
2018-11-22T23:00:48.594Z,2.40
2018-11-22T23:05:46.405Z,2.40
2018-11-22T23:10:44.287Z,2.40
2018-11-22T23:15:42.260Z,2.60
2018-11-22T23:20:42.126Z,2.70
2018-11-22T23:25:40.094Z,2.80
2018-11-22T23:30:38.317Z,2.70
2018-11-22T23:35:36.438Z,2.60
2018-11-22T23:40:35.498Z,2.50
2018-11-22T23:45:34.456Z,2.40
2018-11-22T23:50:33.480Z,2.30
2018-11-22T23:55:31.695Z,2.30
